Latest Weather Observations for Viewbank

IDV60901

Issued at 10:21 pm EDT Sunday 16 December 2018 (issued every 10 minutes, with the page automatically refreshed every 10 minutes)

About weather observations | Map of Melbourne area stations | Latest observations for Melbourne area | Other Formats
Station Details ID: 086068 Name: VIEWBANK Lat: -37.74 Lon: 145.10 Height: 66.1 m
Data from the previous 72 hours. | See also: Recent months at Viewbank
Date/Time
EDT
Temp
°C
App
Temp
°C
Dew
Point
°C
Rel
Hum
%
Delta-T
°C
Wind Press
QNH
hPa
Press
MSL
hPa
Rain since
9am
mm
Dir  Spd
km/h
Gust
km/h
Spd
kts
Gust
kts
16/10:00pm 17.1 19.5 17.1 100 0.0 CALM 0 0 0 0 1007.6 1007.4 2.0
16/09:30pm 17.3 19.4 17.3 100 0.0 N 2 6 1 3 1007.5 1007.3 2.0
16/09:00pm 17.5 19.3 17.5 100 0.0 NNE 4 13 2 7 1007.3 1007.1 2.0
16/08:30pm 17.9 20.3 17.9 100 0.0 NNE 2 7 1 4 1007.1 1006.9 2.0
16/08:00pm 18.1 20.1 17.9 99 0.1 NE 4 7 2 4 1006.9 1006.7 2.0
16/07:30pm 21.1 20.8 14.3 65 4.0 NNW 9 15 5 8 1006.5 1006.3 0.4
16/07:00pm 21.1 20.6 13.8 63 4.2 NNW 9 17 5 9 1006.1 1005.9 0.4
16/06:30pm 21.9 20.5 14.5 63 4.4 N 15 22 8 12 1005.7 1005.5 0.4
16/06:00pm 21.6 21.7 15.4 68 3.7 N 9 17 5 9 1005.5 1005.3 0.4
16/05:30pm 21.0 19.3 13.7 63 4.2 N 15 24 8 13 1005.4 1005.2 0.4
16/05:00pm 20.6 21.0 16.2 76 2.7 N 9 13 5 7 1005.4 1005.2 0.4
16/04:30pm 20.5 19.1 14.6 69 3.5 NNW 15 28 8 15 1005.6 1005.4 0.2
16/04:00pm 20.6 19.0 13.8 65 3.9 N 15 26 8 14 1005.6 1005.4 0.2
16/03:30pm 21.3 18.4 13.0 59 4.7 NNW 20 37 11 20 1005.7 1005.5 0.2
16/03:00pm 21.2 18.3 12.9 59 4.8 NNW 20 35 11 19 1005.4 1005.2 0.2
16/02:30pm 21.4 19.2 13.3 60 4.7 N 17 30 9 16 1005.2 1005.0 0.2
16/02:00pm 21.9 19.4 13.5 59 4.9 N 19 32 10 17 1005.4 1005.2 0.2
16/01:30pm 20.7 17.9 12.7 60 4.5 N 19 35 10 19 1005.6 1005.4 0.2
16/01:00pm 20.6 18.6 14.0 66 3.8 N 17 32 9 17 1005.7 1005.5 0.2
16/12:30pm 19.8 17.0 14.4 71 3.1 N 22 37 12 20 1006.0 1005.8 0.2
16/12:00pm 19.9 16.7 13.1 65 3.9 N 22 37 12 20 1005.7 1005.5 0.2
16/11:30am 19.9 17.3 13.1 65 3.9 N 19 32 10 17 1005.8 1005.6 0.2
16/11:00am 19.9 17.6 14.0 69 3.4 N 19 32 10 17 1005.7 1005.5 0.2
16/10:30am 18.6 16.9 13.5 72 2.9 N 15 26 8 14 1005.9 1005.7 0.2
16/10:00am 17.6 17.0 14.7 83 1.7 N 11 17 6 9 1006.1 1005.9 0.2
16/09:30am 17.5 15.9 14.0 80 2.0 N 15 24 8 13 1006.2 1006.0 0.0
16/09:00am 18.5 17.9 14.6 78 2.3 N 11 19 6 10 1005.8 1005.6 5.0
16/08:30am 17.9 18.8 16.1 89 1.1 NNE 6 11 3 6 1005.5 1005.3 5.0
16/08:00am 16.6 18.5 16.6 100 0.0 ENE 2 6 1 3 1005.2 1005.0 5.0
16/07:30am 15.5 17.3 15.5 100 0.0 CALM 0 2 0 1 1005.1 1004.9 5.0
16/07:00am 14.9 16.5 14.9 100 0.0 CALM 0 6 0 3 1004.9 1004.7 5.0
16/06:30am 14.7 16.2 14.7 100 0.0 CALM 0 0 0 0 1004.5 1004.3 5.0
16/06:00am 14.6 15.3 14.6 100 0.0 ENE 4 9 2 5 1004.2 1004.0 5.0
16/05:30am 14.5 14.6 14.5 100 0.0 ENE 7 9 4 5 1003.7 1003.5 5.0
16/05:00am 14.7 14.9 14.7 100 0.0 WNW 7 9 4 5 1003.6 1003.4 5.0
16/04:30am 14.6 16.1 14.6 100 0.0 CALM 0 2 0 1 1003.4 1003.2 5.0
16/04:00am 14.6 15.3 14.6 100 0.0 WNW 4 7 2 4 1003.3 1003.1 5.0
16/03:30am 14.6 15.7 14.6 100 0.0 SSW 2 6 1 3 1003.0 1002.8 5.0
16/03:00am 14.8 16.0 14.8 100 0.0 NNE 2 9 1 5 1002.9 1002.7 5.0
16/02:30am 15.3 13.4 15.1 99 0.1 ENE 19 24 10 13 1003.3 1003.1 4.8
16/02:00am 16.1 14.1 13.8 86 1.3 NE 17 30 9 16 1004.5 1004.3 3.8
16/01:30am 17.3 15.9 13.4 78 2.2 N 13 19 7 10 1005.0 1004.8 2.4
16/01:00am 17.6 18.7 17.0 96 0.4 N 7 11 4 6 1004.7 1004.5 2.2
16/12:30am 17.8 20.3 17.2 96 0.4 CALM 0 0 0 0 1004.4 1004.2 2.2
16/12:00am 17.9 19.1 16.8 93 0.7 NNE 6 13 3 7 1005.1 1004.9 2.2
 
Date/Time
EDT
Temp
°C
App
Temp
°C
Dew
Point
°C
Rel
Hum
%
Delta-T
°C
Wind Press
QNH
hPa
Press
MSL
hPa
Rain since
9am
mm
Dir  Spd
km/h
Gust
km/h
Spd
kts
Gust
kts
15/11:30pm 18.0 18.0 16.2 89 1.1 E 11 15 6 8 1004.7 1004.5 2.2
15/11:00pm 18.2 19.2 16.4 89 1.1 N 6 11 3 6 1004.9 1004.7 2.2
15/10:30pm 18.3 20.0 16.1 87 1.3 NE 2 7 1 4 1004.9 1004.7 2.2
15/10:00pm 19.5 19.7 14.7 74 2.8 NNE 7 17 4 9 1005.1 1004.9 2.2
15/09:30pm 20.2 20.8 14.3 69 3.4 N 4 9 2 5 1004.7 1004.5 2.0
15/09:00pm 19.8 19.9 14.0 69 3.4 NE 6 7 3 4 1004.6 1004.4 2.0
15/08:30pm 20.5 21.4 13.9 66 3.8 NE 2 7 1 4 1004.1 1003.9 2.0
15/08:00pm 20.8 20.5 13.3 62 4.3 N 7 13 4 7 1003.6 1003.4 2.0
15/07:30pm 21.3 20.3 12.4 57 5.0 N 9 13 5 7 1003.5 1003.3 2.0
15/07:00pm 20.6 20.4 13.6 64 4.0 N 7 13 4 7 1003.5 1003.3 2.0
15/06:30pm 20.0 19.8 13.7 67 3.6 N 7 15 4 8 1003.5 1003.3 2.0
15/06:00pm 22.7 20.2 12.3 52 5.9 N 17 28 9 15 1003.7 1003.5 2.0
15/05:30pm 23.5 21.7 13.4 53 5.9 N 15 28 8 15 1003.2 1003.0 2.0
15/05:00pm 23.2 21.1 12.5 51 6.1 N 15 32 8 17 1003.4 1003.2 2.0
15/04:30pm 23.7 22.4 13.8 53 5.8 NNW 13 24 7 13 1003.6 1003.4 2.0
15/04:00pm 23.1 21.8 13.8 55 5.5 N 13 22 7 12 1003.6 1003.4 2.0
15/03:30pm 21.6 21.5 15.0 66 3.9 NNE 9 17 5 9 1003.9 1003.7 2.0
15/03:00pm 19.7 17.2 14.1 70 3.3 NNW 20 30 11 16 1004.0 1003.8 2.0
15/02:30pm 18.4 17.7 16.4 88 1.2 N 15 26 8 14 1004.9 1004.7 2.0
15/02:00pm 17.7 16.2 16.4 92 0.8 NNW 19 46 10 25 1005.2 1005.0 1.8
15/01:55pm 18.0 15.2 15.4 85 1.5 N 24 46 13 25 1005.2 1005.0 1.4
15/01:30pm 23.0 22.0 14.6 59 5.0 NW 13 20 7 11 1004.3 1004.1 0.0
15/01:00pm 23.1 23.5 15.4 62 4.6 NNW 7 13 4 7 1004.0 1003.8 0.0
15/12:30pm 23.0 23.0 15.3 62 4.6 WNW 9 13 5 7 1003.9 1003.7 0.0
15/12:00pm 22.6 24.0 18.6 78 2.5 WNW 9 13 5 7 1004.5 1004.3 0.0
15/11:30am 21.5 22.1 17.7 79 2.4 W 11 17 6 9 1004.6 1004.4 0.0
15/11:00am 21.9 23.4 19.8 88 1.4 W 11 17 6 9 1004.7 1004.5 0.0
15/10:30am 19.9 22.3 19.7 99 0.1 SSW 6 7 3 4 1004.9 1004.7 0.0
15/10:00am 19.4 22.1 19.4 100 0.0 W 4 7 2 4 1005.0 1004.8 0.0
15/09:30am 18.8 20.3 18.8 100 0.0 NNW 9 13 5 7 1005.1 1004.9 0.0
15/09:00am 18.4 19.7 18.4 100 0.0 N 9 15 5 8 1005.1 1004.9 38.0
15/08:30am 18.3 20.9 18.3 100 0.0 SE 2 6 1 3 1005.0 1004.8 38.0
15/08:00am 17.9 20.7 17.9 100 0.0 CALM 0 0 0 0 1005.0 1004.8 38.0
15/07:30am 17.7 20.0 17.7 100 0.0 ESE 2 7 1 4 1004.7 1004.5 38.0
15/07:00am 17.1 19.5 17.1 100 0.0 CALM 0 0 0 0 1004.1 1003.9 38.0
15/06:30am 16.7 19.0 16.7 100 0.0 CALM 0 0 0 0 1004.2 1004.0 38.0
15/06:00am 16.6 18.8 16.6 100 0.0 CALM 0 0 0 0 1004.3 1004.1 38.0
15/05:30am 16.6 17.5 16.6 100 0.0 NE 7 9 4 5 1004.3 1004.1 38.0
15/05:00am 17.0 19.0 17.0 100 0.0 ENE 2 6 1 3 1004.5 1004.3 38.0
15/04:30am 17.3 18.5 17.3 100 0.0 ESE 7 11 4 6 1004.4 1004.2 38.0
15/04:00am 17.6 19.9 17.6 100 0.0 S 2 7 1 4 1004.2 1004.0 38.0
15/03:30am 17.9 20.3 17.9 100 0.0 NNE 2 9 1 5 1004.6 1004.4 37.4
15/03:00am 17.7 20.0 17.7 100 0.0 ENE 2 9 1 5 1004.9 1004.7 35.6
15/02:30am 17.5 20.1 17.5 100 0.0 CALM 0 0 0 0 1004.9 1004.7 35.6
15/02:00am 17.6 20.2 17.6 100 0.0 CALM 0 0 0 0 1005.1 1004.9 35.6
15/01:30am 17.6 20.2 17.6 100 0.0 CALM 0 0 0 0 1005.2 1005.0 35.6
15/01:00am 17.4 20.0 17.4 100 0.0 CALM 0 0 0 0 1005.5 1005.3 35.6
15/12:30am 17.6 19.9 17.6 100 0.0 ENE 2 6 1 3 1005.6 1005.4 35.6
15/12:00am 17.6 20.2 17.6 100 0.0 CALM 0 0 0 0 1005.8 1005.6 35.6
 
Date/Time
EDT
Temp
°C
App
Temp
°C
Dew
Point
°C
Rel
Hum
%
Delta-T
°C
Wind Press
QNH
hPa
Press
MSL
hPa
Rain since
9am
mm
Dir  Spd
km/h
Gust
km/h
Spd
kts
Gust
kts
14/11:30pm 17.8 19.4 17.8 100 0.0 ENE 6 7 3 4 1005.9 1005.7 35.6
14/11:00pm 18.2 20.3 18.2 100 0.0 ENE 4 9 2 5 1006.1 1005.9 35.6
14/10:30pm 18.5 21.5 18.5 100 0.0 CALM 0 0 0 0 1005.8 1005.6 35.6
14/10:00pm 18.8 21.2 18.8 100 0.0 NNE 4 9 2 5 1006.1 1005.9 34.6
14/09:30pm 18.2 20.0 18.2 100 0.0 N 6 9 3 5 1005.4 1005.2 34.6
14/09:00pm 18.9 22.1 18.9 100 0.0 CALM 0 6 0 3 1005.3 1005.1 34.6
14/08:30pm 19.0 21.1 19.0 100 0.0 ENE 6 7 3 4 1005.1 1004.9 34.6
14/08:00pm 19.3 22.7 19.3 100 0.0 CALM 0 0 0 0 1004.9 1004.7 34.6
14/07:30pm 19.4 21.7 19.4 100 0.0 NNE 6 9 3 5 1004.6 1004.4 34.6
14/07:00pm 19.0 20.9 19.0 100 0.0 N 7 13 4 7 1003.9 1003.7 34.6
14/06:30pm 19.0 21.5 19.0 100 0.0 NNE 4 7 2 4 1003.5 1003.3 34.6
14/06:00pm 18.9 20.8 18.9 100 0.0 NW 7 11 4 6 1003.5 1003.3 34.6
14/05:30pm 18.7 20.5 18.7 100 0.0 WNW 7 11 4 6 1003.1 1002.9 34.2
14/05:00pm 18.4 20.6 18.4 100 0.0 NW 4 13 2 7 1003.3 1003.1 24.2
14/04:30pm 19.4 21.0 19.1 98 0.2 WSW 9 15 5 8 1003.1 1002.9 5.4
14/04:00pm 19.8 20.7 18.3 91 0.9 SW 11 17 6 9 1003.3 1003.1 5.4
14/03:30pm 19.7 20.1 18.2 91 0.9 SSW 13 19 7 10 1003.1 1002.9 5.4
14/03:00pm 21.9 22.5 16.8 73 3.1 WSW 9 15 5 8 1003.1 1002.9 4.8
14/02:30pm 22.3 22.4 17.4 74 3.0 SSW 13 19 7 10 1003.1 1002.9 4.8
14/02:00pm 22.8 23.7 17.5 72 3.3 SSW 9 17 5 9 1003.7 1003.5 4.8
14/01:30pm 21.5 21.8 16.0 71 3.3 SSW 9 13 5 7 1003.9 1003.7 4.8
14/01:00pm 21.3 22.4 17.1 77 2.6 S 7 13 4 7 1004.0 1003.8 4.8
14/12:30pm 19.9 21.4 18.0 89 1.2 SSW 7 13 4 7 1004.0 1003.8 4.8
14/12:00pm 18.5 20.4 18.5 100 0.0 NNE 6 11 3 6 1004.0 1003.8 4.8
14/11:30am 16.8 17.8 16.8 100 0.0 N 7 15 4 8 1004.0 1003.8 4.8
14/11:00am 16.4 16.8 16.4 100 0.0 SSW 9 13 5 7 1003.0 1002.8 3.0
14/10:30am 16.2 16.6 16.2 100 0.0 S 9 17 5 9 1003.5 1003.3 2.2
14/10:00am 16.1 18.1 16.1 100 0.0 CALM 0 0 0 0 1004.7 1004.5 1.2
14/09:30am 16.1 17.0 16.1 100 0.0 WSW 6 11 3 6 1004.0 1003.8 0.0
14/09:00am 15.7 15.9 15.7 100 0.0 NNW 9 17 5 9 1003.4 1003.2 19.2
14/08:30am 15.5 16.2 15.5 100 0.0 NW 6 15 3 8 1003.0 1002.8 19.2
14/08:00am 15.8 16.6 15.8 100 0.0 NNW 6 13 3 7 1003.4 1003.2 19.0
14/07:30am 15.9 16.5 15.7 99 0.1 N 7 11 4 6 1003.0 1002.8 17.8
14/07:00am 15.9 17.9 15.9 100 0.0 CALM 0 0 0 0 1001.7 1001.5 17.8
14/06:30am 15.6 16.7 15.6 100 0.0 W 4 9 2 5 1000.7 1000.5 17.8
14/06:00am 15.5 16.2 15.5 100 0.0 WSW 6 7 3 4 1001.2 1001.0 17.8
14/05:30am 15.5 15.6 15.5 100 0.0 W 9 13 5 7 1000.6 1000.4 17.8
14/05:00am 15.4 16.4 15.4 100 0.0 WSW 4 7 2 4 1001.0 1000.8 17.8
14/04:30am 15.4 15.8 15.4 100 0.0 NW 7 11 4 6 1000.2 1000.0 17.8
14/04:00am 16.2 18.3 16.2 100 0.0 CALM 0 0 0 0 999.9 999.7 17.8
14/03:30am 16.2 18.3 16.2 100 0.0 CALM 0 4 0 2 999.4 999.2 17.8
14/03:00am 16.6 18.8 16.6 100 0.0 CALM 0 0 0 0 999.6 999.4 17.8
14/02:30am 16.6 18.8 16.6 100 0.0 CALM 0 0 0 0 999.6 999.4 17.8
14/02:00am 17.0 19.4 17.0 100 0.0 CALM 0 0 0 0 999.2 999.0 17.8
14/01:30am 17.0 19.4 17.0 100 0.0 CALM 0 0 0 0 998.8 998.6 17.8
14/01:00am 17.3 18.7 17.3 100 0.0 N 6 9 3 5 998.5 998.3 17.8
14/12:30am 17.4 18.8 17.4 100 0.0 WNW 6 7 3 4 998.1 997.9 17.8
14/12:00am 17.7 18.7 17.7 100 0.0 NW 9 11 5 6 998.0 997.8 17.8
 
Date/Time
EDT
Temp
°C
App
Temp
°C
Dew
Point
°C
Rel
Hum
%
Delta-T
°C
Wind Press
QNH
hPa
Press
MSL
hPa
Rain since
9am
mm
Dir  Spd
km/h
Gust
km/h
Spd
kts
Gust
kts
13/11:30pm 17.9 19.5 17.9 100 0.0 WSW 6 9 3 5 997.8 997.6 17.8
13/11:00pm 17.7 19.1 17.7 100 0.0 SW 7 11 4 6 997.7 997.5 17.8
13/10:30pm 17.9 19.0 17.9 100 0.0 SW 9 15 5 8 997.0 996.8 17.8

Latest Capital City Observations: Canberra | Sydney | Melbourne | Brisbane | Adelaide | Perth | Hobart | Darwin

Other Formats:

Comma delimited format used in spreadsheet applications
http://www.bom.gov.au/fwo/IDV60901/IDV60901.95874.axf

JavaScript Object Notation format (JSON) in row-major order
http://www.bom.gov.au/fwo/IDV60901/IDV60901.95874.json